Atalanti — 5BYY2 — position and weather

sailwx.info

Track history (hours):
 
Tides and Currents Weather Stations Pressure Air Temp Water Temp Dewpoint Dewpoint Depression Visibility Wind Speed Wind Dir Waves Ship Positions

Atalanti

Last reported at 2014-Oct-23 06:07 UTC. Time now 2014-Oct-23 07:53 UTC.
Position N 53°32' W 003°34'.

Length 97 m; draft 4.1 m.

Type: Other ship. MMSI: 212279000.

Date/timePositionNaut miles runAvg speedWind from/ knotsBaromVisibWave heightAir tempDewpointWater temp
2014-Oct-23 06:07N 53°32' W 003°34'0 0.1
2014-Oct-23 05:21N 53°32' W 003°34'0 0.1
2014-Oct-23 02:22N 53°32' W 003°33'3 3.5
2014-Oct-23 01:25N 53°31' W 003°28'2 1.8
2014-Oct-23 00:28N 53°31' W 003°25'0 0.4
2014-Oct-22 23:32N 53°31' W 003°25'1 0.7
2014-Oct-22 22:33N 53°32' W 003°26'0 0.4
2014-Oct-22 21:28N 53°32' W 003°27'1 0.6
2014-Oct-22 20:33N 53°32' W 003°28'1 0.6
2014-Oct-22 19:33N 53°32' W 003°29'1 0.6
2014-Oct-22 18:16N 53°32' W 003°30'2 0.5
2014-Oct-22 15:08N 53°32' W 003°33'0 0.4
2014-Oct-22 14:32N 53°32' W 003°33'0 0.3
2014-Oct-22 13:33N 53°32' W 003°34'0 0.1
2014-Oct-22 12:33N 53°32' W 003°34'0 0.0
2014-Oct-22 11:21N 53°32' W 003°34'0 0.1
2014-Oct-22 10:26N 53°32' W 003°34'0 0.0
2014-Oct-22 09:29N 53°32' W 003°34'0 0.2
2014-Oct-22 08:30N 53°32' W 003°33'0 0.0
2014-Oct-22 07:33N 53°32' W 003°33'0 0.0
2014-Oct-22 06:33N 53°32' W 003°33'0 0.0
2014-Oct-22 05:33N 53°32' W 003°33'0 0.0
2014-Oct-22 04:33N 53°32' W 003°33'0 0.0
2014-Oct-22 03:33N 53°32' W 003°33'0 0.1
2014-Oct-22 02:33N 53°32' W 003°33'0 0.2
2014-Oct-22 01:33N 53°32' W 003°33'0 0.0
2014-Oct-22 00:27N 53°32' W 003°33'0 0.1
2014-Oct-21 23:33N 53°32' W 003°33'0 0.2
2014-Oct-21 22:15N 53°32' W 003°32'0 0.1
2014-Oct-21 21:30N 53°32' W 003°32'0 0.1
2014-Oct-21 20:33N 53°32' W 003°33'0 0.2
2014-Oct-21 19:33N 53°32' W 003°32'0 0.1
2014-Oct-21 18:33N 53°32' W 003°32'0 0.1
2014-Oct-21 17:33N 53°32' W 003°32'0 0.1
2014-Oct-21 16:33N 53°32' W 003°32'0 0.1
2014-Oct-21 15:33N 53°31' W 003°33'0 0.2
2014-Oct-21 14:34N 53°32' W 003°33'0 0.1
2014-Oct-21 13:33N 53°32' W 003°33'0 0.0
2014-Oct-21 12:33N 53°32' W 003°33'0 0.1
2014-Oct-21 11:33N 53°32' W 003°33'0 0.2
2014-Oct-21 10:33N 53°32' W 003°33'0 0.1
2014-Oct-21 09:33N 53°32' W 003°33'0 0.1
2014-Oct-21 08:33N 53°32' W 003°33'0 0.1
2014-Oct-21 07:33N 53°32' W 003°33'0 0.4
2014-Oct-21 06:31N 53°32' W 003°33'0 0.3
2014-Oct-21 05:33N 53°32' W 003°34'0 0.1
2014-Oct-21 04:32N 53°32' W 003°34'1 0.2
2014-Oct-21 02:11N 53°32' W 003°33'2 0.5
2014-Oct-20 22:32N 53°32' W 003°30'0 0.5
2014-Oct-20 21:33N 53°32' W 003°29'1 0.5
2014-Oct-20 20:32N 53°32' W 003°28'0 0.5
2014-Oct-20 19:33N 53°32' W 003°28'0 0.5
2014-Oct-20 18:32N 53°32' W 003°27'0 0.4
2014-Oct-20 17:33N 53°32' W 003°26'1 0.6
2014-Oct-20 16:33N 53°31' W 003°25'0 0.3
2014-Oct-20 15:32N 53°31' W 003°25'0 0.0
2014-Oct-20 14:33N 53°31' W 003°25'0 0.1
2014-Oct-20 13:33N 53°31' W 003°25'0 0.2
2014-Oct-20 12:34N 53°31' W 003°24'0 0.2
2014-Oct-20 11:33N 53°31' W 003°24'0 0.2
2014-Oct-20 10:32N 53°31' W 003°24'0 0.1
2014-Oct-20 09:33N 53°31' W 003°24'0 0.1
2014-Oct-20 08:33N 53°31' W 003°24'0 0.1
2014-Oct-20 07:31N 53°31' W 003°24'0 0.1
2014-Oct-20 06:20N 53°30' W 003°24'0 0.1
2014-Oct-20 05:33N 53°30' W 003°24'0 0.1
2014-Oct-20 04:32N 53°30' W 003°24'0 0.1
2014-Oct-20 03:33N 53°30' W 003°24'0 0.1
2014-Oct-20 02:29N 53°30' W 003°24'0 0.1
2014-Oct-20 01:28N 53°30' W 003°23'0 0.1
2014-Oct-20 00:33N 53°30' W 003°23'0 0.1
2014-Oct-19 23:33N 53°30' W 003°23'0 0.1
2014-Oct-19 22:33N 53°30' W 003°23'0 0.1
2014-Oct-19 21:32N 53°30' W 003°23'0 0.1
2014-Oct-19 20:32N 53°30' W 003°23'0 0.1
2014-Oct-19 19:33N 53°30' W 003°23'0 0.1
2014-Oct-19 18:33N 53°30' W 003°23'0 0.1
2014-Oct-19 17:32N 53°30' W 003°23'0 0.1
2014-Oct-19 16:33N 53°30' W 003°23'0 0.1
2014-Oct-19 15:33N 53°29' W 003°23'0 0.1
2014-Oct-19 14:32N 53°29' W 003°22'0 0.1
2014-Oct-19 13:33N 53°29' W 003°22'0 0.1
2014-Oct-19 12:33N 53°29' W 003°22'0 0.1
2014-Oct-19 11:30N 53°29' W 003°22'0 0.1
2014-Oct-19 10:30N 53°29' W 003°22'0 0.1
2014-Oct-19 09:33N 53°29' W 003°22'0 0.1
2014-Oct-19 08:30N 53°29' W 003°22'0 0.1
2014-Oct-19 07:31N 53°29' W 003°22'0 0.1
2014-Oct-19 06:33N 53°29' W 003°22'0 0.1
2014-Oct-19 05:33N 53°29' W 003°21'0 0.1
2014-Oct-19 04:33N 53°29' W 003°21'0 0.1
2014-Oct-19 03:33N 53°29' W 003°21'0 0.1
2014-Oct-19 02:33N 53°29' W 003°21'0 0.1
2014-Oct-19 01:33N 53°29' W 003°21'0 0.2
2014-Oct-19 00:33N 53°28' W 003°21'0 0.1
2014-Oct-18 23:33N 53°28' W 003°21'0 0.1
2014-Oct-18 22:33N 53°28' W 003°20'0 0.1
2014-Oct-18 21:33N 53°28' W 003°20'0 0.1
2014-Oct-18 20:33N 53°28' W 003°20'0 0.1
2014-Oct-18 19:33N 53°28' W 003°20'0 0.1
2014-Oct-18 18:33N 53°28' W 003°20'0 0.1
2014-Oct-18 17:33N 53°28' W 003°20'0 0.2
2014-Oct-18 16:33N 53°28' W 003°19'0 0.2
2014-Oct-18 15:33N 53°28' W 003°19'0 0.2
2014-Oct-18 14:33N 53°27' W 003°19'0 0.1
2014-Oct-18 13:33N 53°27' W 003°19'0 0.1
2014-Oct-18 12:33N 53°27' W 003°19'0 0.1
2014-Oct-18 11:33N 53°27' W 003°19'0 0.1
2014-Oct-18 10:33N 53°27' W 003°18'0 0.1
2014-Oct-18 09:33N 53°27' W 003°18'0 0.0
2014-Oct-18 08:33N 53°27' W 003°18'0 0.0
2014-Oct-18 07:33N 53°27' W 003°18'0 0.0
2014-Oct-18 06:33N 53°27' W 003°18'0 0.1
2014-Oct-18 05:33N 53°27' W 003°18'0 0.1
2014-Oct-18 04:33N 53°27' W 003°18'0 0.1
2014-Oct-18 03:33N 53°27' W 003°18'0 0.2
2014-Oct-18 02:33N 53°27' W 003°17'0 0.2
2014-Oct-18 01:33N 53°27' W 003°17'0 0.2
2014-Oct-18 00:33N 53°27' W 003°17'0 0.2
2014-Oct-17 23:33N 53°27' W 003°16'0 0.1
2014-Oct-17 22:33N 53°27' W 003°16'0 0.1
2014-Oct-17 21:33N 53°27' W 003°16'0 0.1
2014-Oct-17 20:33N 53°27' W 003°16'0 0.2
2014-Oct-17 19:33N 53°27' W 003°16'0 0.1
2014-Oct-17 18:33N 53°27' W 003°15'0 0.0
2014-Oct-17 17:33N 53°27' W 003°15'0 0.0
2014-Oct-17 16:33N 53°27' W 003°15'0 0.0
2014-Oct-17 15:33N 53°27' W 003°15'0 0.0
2014-Oct-17 14:33N 53°27' W 003°15'0 0.0
2014-Oct-17 13:33N 53°27' W 003°15'0 0.1
2014-Oct-17 12:33N 53°27' W 003°15'0 0.1
2014-Oct-17 11:33N 53°27' W 003°15'0 0.1
2014-Oct-17 10:33N 53°27' W 003°15'0 0.1
2014-Oct-17 09:33N 53°27' W 003°15'0 0.0
2014-Oct-17 08:33N 53°27' W 003°15'0 0.1
2014-Oct-17 07:33N 53°27' W 003°15'0 0.1
2014-Oct-17 06:33N 53°27' W 003°15'0 0.1
2014-Oct-17 05:33N 53°27' W 003°14'0 0.1
2014-Oct-17 04:33N 53°27' W 003°14'0 0.1
2014-Oct-17 03:33N 53°27' W 003°14'0 0.1
2014-Oct-17 02:33N 53°27' W 003°14'0 0.1
2014-Oct-17 01:33N 53°27' W 003°14'0 0.0
2014-Oct-17 00:33N 53°27' W 003°14'0 0.0
2014-Oct-16 23:33N 53°27' W 003°14'0 0.0
2014-Oct-16 22:33N 53°27' W 003°14'0 0.1
2014-Oct-16 21:33N 53°27' W 003°14'0 0.1
2014-Oct-16 20:33N 53°27' W 003°14'0 0.1
2014-Oct-16 19:33N 53°27' W 003°13'0 0.1
2014-Oct-16 18:33N 53°27' W 003°13'0 0.1
2014-Oct-16 17:33N 53°27' W 003°13'0 0.1
2014-Oct-16 16:33N 53°27' W 003°13'0 0.1
2014-Oct-16 15:33N 53°27' W 003°13'0 0.1
2014-Oct-16 14:33N 53°27' W 003°13'0 0.1
2014-Oct-16 13:33N 53°27' W 003°13'0 0.1
2014-Oct-16 12:33N 53°27' W 003°13'0 0.1
2014-Oct-16 11:33N 53°27' W 003°12'0 0.0
2014-Oct-16 10:33N 53°27' W 003°12'0 0.1
2014-Oct-16 09:33N 53°27' W 003°12'0 0.1
2014-Oct-16 08:33N 53°27' W 003°12'0 0.1
2014-Oct-16 07:33N 53°27' W 003°12'0 0.1
2014-Oct-16 06:33N 53°27' W 003°12'0 0.1
2014-Oct-16 05:33N 53°27' W 003°12'0 0.1
2014-Oct-16 04:33N 53°27' W 003°12'0 0.1
2014-Oct-16 03:33N 53°27' W 003°12'0 0.1
2014-Oct-16 02:33N 53°27' W 003°11'0 0.1
2014-Oct-16 01:33N 53°27' W 003°11'0 0.1
2014-Oct-16 00:33N 53°27' W 003°11'0 0.1
2014-Oct-15 23:33N 53°27' W 003°11'0 0.1
2014-Oct-15 22:33N 53°27' W 003°11'0 0.0
2014-Oct-15 21:33N 53°27' W 003°11'0 0.0
2014-Oct-15 20:33N 53°27' W 003°11'0 0.1
2014-Oct-15 19:33N 53°27' W 003°11'0 0.1
2014-Oct-15 18:33N 53°27' W 003°10'0 0.1
2014-Oct-15 17:33N 53°27' W 003°10'0 0.2
2014-Oct-15 16:33N 53°27' W 003°10'0 0.2
2014-Oct-15 15:33N 53°27' W 003°10'0 0.1
2014-Oct-15 14:33N 53°27' W 003°10'0 0.1
2014-Oct-15 13:33N 53°27' W 003°10'0 0.1
2014-Oct-15 12:33N 53°27' W 003°09'0 0.1
2014-Oct-15 11:33N 53°27' W 003°09'0 0.1
2014-Oct-15 10:33N 53°27' W 003°09'0 0.1
2014-Oct-15 09:33N 53°27' W 003°09'0 0.1
2014-Oct-15 08:33N 53°27' W 003°09'0 0.1
2014-Oct-15 07:33N 53°27' W 003°09'0 0.1
2014-Oct-15 06:33N 53°26' W 003°09'0 0.1
2014-Oct-15 05:33N 53°26' W 003°08'0 0.1
2014-Oct-15 04:33N 53°26' W 003°08'0 0.1
2014-Oct-15 03:33N 53°26' W 003°08'0 0.1
2014-Oct-15 02:33N 53°26' W 003°08'0 0.1
2014-Oct-15 01:33N 53°26' W 003°08'0 0.0
2014-Oct-15 00:33N 53°26' W 003°08'0 0.0
2014-Oct-14 23:33N 53°26' W 003°08'0 0.0
2014-Oct-14 22:33N 53°26' W 003°08'0 0.0
2014-Oct-14 21:33N 53°26' W 003°08'0 0.0
2014-Oct-14 20:33N 53°26' W 003°08'0 0.0
2014-Oct-14 19:33N 53°26' W 003°08'0 0.0
2014-Oct-14 18:33N 53°26' W 003°08'0 0.0
2014-Oct-14 17:33N 53°26' W 003°08'0 0.0
2014-Oct-14 16:33N 53°26' W 003°08'0 0.0
2014-Oct-14 15:33N 53°26' W 003°08'0 0.1
2014-Oct-14 14:33N 53°26' W 003°08'0 0.1
2014-Oct-14 13:33N 53°26' W 003°08'0 0.0
2014-Oct-14 12:33N 53°26' W 003°08'0 0.0
2014-Oct-14 11:33N 53°26' W 003°08'0 0.0
2014-Oct-14 10:33N 53°26' W 003°08'0 0.0
2014-Oct-14 09:33N 53°26' W 003°08'0 0.0
2014-Oct-14 08:33N 53°26' W 003°08'0 0.0
2014-Oct-14 07:33N 53°26' W 003°08'0 0.0
2014-Oct-14 06:33N 53°26' W 003°08'0 0.0
2014-Oct-14 05:33N 53°26' W 003°08'0 0.0
2014-Oct-14 04:33N 53°26' W 003°08'0 0.0
2014-Oct-14 03:33N 53°26' W 003°08'0 0.0
2014-Oct-14 02:33N 53°26' W 003°08'0 0.0
2014-Oct-14 01:33N 53°26' W 003°08'0 0.0
2014-Oct-14 00:33N 53°26' W 003°08'0 0.0
2014-Oct-13 23:33N 53°26' W 003°08'0 0.0
2014-Oct-13 22:33N 53°26' W 003°08'0 0.0
2014-Oct-13 21:33N 53°26' W 003°08'0 0.0
2014-Oct-13 20:33N 53°26' W 003°08'0 0.0
2014-Oct-13 19:33N 53°26' W 003°08'0 0.0
2014-Oct-13 18:33N 53°26' W 003°08'0 0.0
2014-Oct-13 17:33N 53°26' W 003°08'0 0.0
2014-Oct-13 16:33N 53°26' W 003°08'0 0.0
2014-Oct-13 15:33N 53°26' W 003°08'0 0.0
2014-Oct-13 14:33N 53°26' W 003°08'0 0.0
2014-Oct-13 13:33N 53°26' W 003°08'0 0.0
2014-Oct-13 12:33N 53°26' W 003°08'0 0.0
2014-Oct-13 11:33N 53°26' W 003°08'0 0.0
2014-Oct-13 10:33N 53°26' W 003°08'0 0.0
2014-Oct-13 09:33N 53°26' W 003°08'0 0.0
2014-Oct-13 08:33N 53°26' W 003°08'0 0.0
2014-Oct-13 07:33N 53°26' W 003°08'0 0.0
2014-Oct-13 06:33N 53°26' W 003°08'  
Track history (hours):
 
Tides and Currents Weather Stations Pressure Air Temp Water Temp Dewpoint Dewpoint Depression Visibility Wind Speed Wind Dir Waves Ship Positions

Atalanti

Last reported at 2014-Oct-23 06:07 UTC. Time now 2014-Oct-23 07:53 UTC.
Position N 53°32' W 003°34'.

Length 97 m; draft 4.1 m.

Type: Other ship. MMSI: 212279000.

Date/timePositionNaut miles runAvg speedWind from/ knotsBaromVisibWave heightAir tempDewpointWater temp
2014-Oct-23 06:07N 53°32' W 003°34'0 0.1
2014-Oct-23 05:21N 53°32' W 003°34'0 0.1
2014-Oct-23 02:22N 53°32' W 003°33'3 3.5
2014-Oct-23 01:25N 53°31' W 003°28'2 1.8
2014-Oct-23 00:28N 53°31' W 003°25'0 0.4
2014-Oct-22 23:32N 53°31' W 003°25'1 0.7
2014-Oct-22 22:33N 53°32' W 003°26'0 0.4
2014-Oct-22 21:28N 53°32' W 003°27'1 0.6
2014-Oct-22 20:33N 53°32' W 003°28'1 0.6
2014-Oct-22 19:33N 53°32' W 003°29'1 0.6
2014-Oct-22 18:16N 53°32' W 003°30'2 0.5
2014-Oct-22 15:08N 53°32' W 003°33'0 0.4
2014-Oct-22 14:32N 53°32' W 003°33'0 0.3
2014-Oct-22 13:33N 53°32' W 003°34'0 0.1
2014-Oct-22 12:33N 53°32' W 003°34'0 0.0
2014-Oct-22 11:21N 53°32' W 003°34'0 0.1
2014-Oct-22 10:26N 53°32' W 003°34'0 0.0
2014-Oct-22 09:29N 53°32' W 003°34'0 0.2
2014-Oct-22 08:30N 53°32' W 003°33'0 0.0
2014-Oct-22 07:33N 53°32' W 003°33'0 0.0
2014-Oct-22 06:33N 53°32' W 003°33'0 0.0
2014-Oct-22 05:33N 53°32' W 003°33'0 0.0
2014-Oct-22 04:33N 53°32' W 003°33'0 0.0
2014-Oct-22 03:33N 53°32' W 003°33'0 0.1
2014-Oct-22 02:33N 53°32' W 003°33'0 0.2
2014-Oct-22 01:33N 53°32' W 003°33'0 0.0
2014-Oct-22 00:27N 53°32' W 003°33'0 0.1
2014-Oct-21 23:33N 53°32' W 003°33'0 0.2
2014-Oct-21 22:15N 53°32' W 003°32'0 0.1
2014-Oct-21 21:30N 53°32' W 003°32'0 0.1
2014-Oct-21 20:33N 53°32' W 003°33'0 0.2
2014-Oct-21 19:33N 53°32' W 003°32'0 0.1
2014-Oct-21 18:33N 53°32' W 003°32'0 0.1
2014-Oct-21 17:33N 53°32' W 003°32'0 0.1
2014-Oct-21 16:33N 53°32' W 003°32'0 0.1
2014-Oct-21 15:33N 53°31' W 003°33'0 0.2
2014-Oct-21 14:34N 53°32' W 003°33'0 0.1
2014-Oct-21 13:33N 53°32' W 003°33'0 0.0
2014-Oct-21 12:33N 53°32' W 003°33'0 0.1
2014-Oct-21 11:33N 53°32' W 003°33'0 0.2
2014-Oct-21 10:33N 53°32' W 003°33'0 0.1
2014-Oct-21 09:33N 53°32' W 003°33'0 0.1
2014-Oct-21 08:33N 53°32' W 003°33'0 0.1
2014-Oct-21 07:33N 53°32' W 003°33'0 0.4
2014-Oct-21 06:31N 53°32' W 003°33'0 0.3
2014-Oct-21 05:33N 53°32' W 003°34'0 0.1
2014-Oct-21 04:32N 53°32' W 003°34'1 0.2
2014-Oct-21 02:11N 53°32' W 003°33'2 0.5
2014-Oct-20 22:32N 53°32' W 003°30'0 0.5
2014-Oct-20 21:33N 53°32' W 003°29'1 0.5
2014-Oct-20 20:32N 53°32' W 003°28'0 0.5
2014-Oct-20 19:33N 53°32' W 003°28'0 0.5
2014-Oct-20 18:32N 53°32' W 003°27'0 0.4
2014-Oct-20 17:33N 53°32' W 003°26'1 0.6
2014-Oct-20 16:33N 53°31' W 003°25'0 0.3
2014-Oct-20 15:32N 53°31' W 003°25'0 0.0
2014-Oct-20 14:33N 53°31' W 003°25'0 0.1
2014-Oct-20 13:33N 53°31' W 003°25'0 0.2
2014-Oct-20 12:34N 53°31' W 003°24'0 0.2
2014-Oct-20 11:33N 53°31' W 003°24'0 0.2
2014-Oct-20 10:32N 53°31' W 003°24'0 0.1
2014-Oct-20 09:33N 53°31' W 003°24'0 0.1
2014-Oct-20 08:33N 53°31' W 003°24'0 0.1
2014-Oct-20 07:31N 53°31' W 003°24'0 0.1
2014-Oct-20 06:20N 53°30' W 003°24'0 0.1
2014-Oct-20 05:33N 53°30' W 003°24'0 0.1
2014-Oct-20 04:32N 53°30' W 003°24'0 0.1
2014-Oct-20 03:33N 53°30' W 003°24'0 0.1
2014-Oct-20 02:29N 53°30' W 003°24'0 0.1
2014-Oct-20 01:28N 53°30' W 003°23'0 0.1
2014-Oct-20 00:33N 53°30' W 003°23'0 0.1
2014-Oct-19 23:33N 53°30' W 003°23'0 0.1
2014-Oct-19 22:33N 53°30' W 003°23'0 0.1
2014-Oct-19 21:32N 53°30' W 003°23'0 0.1
2014-Oct-19 20:32N 53°30' W 003°23'0 0.1
2014-Oct-19 19:33N 53°30' W 003°23'0 0.1
2014-Oct-19 18:33N 53°30' W 003°23'0 0.1
2014-Oct-19 17:32N 53°30' W 003°23'0 0.1
2014-Oct-19 16:33N 53°30' W 003°23'0 0.1
2014-Oct-19 15:33N 53°29' W 003°23'0 0.1
2014-Oct-19 14:32N 53°29' W 003°22'0 0.1
2014-Oct-19 13:33N 53°29' W 003°22'0 0.1
2014-Oct-19 12:33N 53°29' W 003°22'0 0.1
2014-Oct-19 11:30N 53°29' W 003°22'0 0.1
2014-Oct-19 10:30N 53°29' W 003°22'0 0.1
2014-Oct-19 09:33N 53°29' W 003°22'0 0.1
2014-Oct-19 08:30N 53°29' W 003°22'0 0.1
2014-Oct-19 07:31N 53°29' W 003°22'0 0.1
2014-Oct-19 06:33N 53°29' W 003°22'0 0.1
2014-Oct-19 05:33N 53°29' W 003°21'0 0.1
2014-Oct-19 04:33N 53°29' W 003°21'0 0.1
2014-Oct-19 03:33N 53°29' W 003°21'0 0.1
2014-Oct-19 02:33N 53°29' W 003°21'0 0.1
2014-Oct-19 01:33N 53°29' W 003°21'0 0.2
2014-Oct-19 00:33N 53°28' W 003°21'0 0.1
2014-Oct-18 23:33N 53°28' W 003°21'0 0.1
2014-Oct-18 22:33N 53°28' W 003°20'0 0.1
2014-Oct-18 21:33N 53°28' W 003°20'0 0.1
2014-Oct-18 20:33N 53°28' W 003°20'0 0.1
2014-Oct-18 19:33N 53°28' W 003°20'0 0.1
2014-Oct-18 18:33N 53°28' W 003°20'0 0.1
2014-Oct-18 17:33N 53°28' W 003°20'0 0.2
2014-Oct-18 16:33N 53°28' W 003°19'0 0.2
2014-Oct-18 15:33N 53°28' W 003°19'0 0.2
2014-Oct-18 14:33N 53°27' W 003°19'0 0.1
2014-Oct-18 13:33N 53°27' W 003°19'0 0.1
2014-Oct-18 12:33N 53°27' W 003°19'0 0.1
2014-Oct-18 11:33N 53°27' W 003°19'0 0.1
2014-Oct-18 10:33N 53°27' W 003°18'0 0.1
2014-Oct-18 09:33N 53°27' W 003°18'0 0.0
2014-Oct-18 08:33N 53°27' W 003°18'0 0.0
2014-Oct-18 07:33N 53°27' W 003°18'0 0.0
2014-Oct-18 06:33N 53°27' W 003°18'0 0.1
2014-Oct-18 05:33N 53°27' W 003°18'0 0.1
2014-Oct-18 04:33N 53°27' W 003°18'0 0.1
2014-Oct-18 03:33N 53°27' W 003°18'0 0.2
2014-Oct-18 02:33N 53°27' W 003°17'0 0.2
2014-Oct-18 01:33N 53°27' W 003°17'0 0.2
2014-Oct-18 00:33N 53°27' W 003°17'0 0.2
2014-Oct-17 23:33N 53°27' W 003°16'0 0.1
2014-Oct-17 22:33N 53°27' W 003°16'0 0.1
2014-Oct-17 21:33N 53°27' W 003°16'0 0.1
2014-Oct-17 20:33N 53°27' W 003°16'0 0.2
2014-Oct-17 19:33N 53°27' W 003°16'0 0.1
2014-Oct-17 18:33N 53°27' W 003°15'0 0.0
2014-Oct-17 17:33N 53°27' W 003°15'0 0.0
2014-Oct-17 16:33N 53°27' W 003°15'0 0.0
2014-Oct-17 15:33N 53°27' W 003°15'0 0.0
2014-Oct-17 14:33N 53°27' W 003°15'0 0.0
2014-Oct-17 13:33N 53°27' W 003°15'0 0.1
2014-Oct-17 12:33N 53°27' W 003°15'0 0.1
2014-Oct-17 11:33N 53°27' W 003°15'0 0.1
2014-Oct-17 10:33N 53°27' W 003°15'0 0.1
2014-Oct-17 09:33N 53°27' W 003°15'0 0.0
2014-Oct-17 08:33N 53°27' W 003°15'0 0.1
2014-Oct-17 07:33N 53°27' W 003°15'0 0.1
2014-Oct-17 06:33N 53°27' W 003°15'0 0.1
2014-Oct-17 05:33N 53°27' W 003°14'0 0.1
2014-Oct-17 04:33N 53°27' W 003°14'0 0.1
2014-Oct-17 03:33N 53°27' W 003°14'0 0.1
2014-Oct-17 02:33N 53°27' W 003°14'0 0.1
2014-Oct-17 01:33N 53°27' W 003°14'0 0.0
2014-Oct-17 00:33N 53°27' W 003°14'0 0.0
2014-Oct-16 23:33N 53°27' W 003°14'0 0.0
2014-Oct-16 22:33N 53°27' W 003°14'0 0.1
2014-Oct-16 21:33N 53°27' W 003°14'0 0.1
2014-Oct-16 20:33N 53°27' W 003°14'0 0.1
2014-Oct-16 19:33N 53°27' W 003°13'0 0.1
2014-Oct-16 18:33N 53°27' W 003°13'0 0.1
2014-Oct-16 17:33N 53°27' W 003°13'0 0.1
2014-Oct-16 16:33N 53°27' W 003°13'0 0.1
2014-Oct-16 15:33N 53°27' W 003°13'0 0.1
2014-Oct-16 14:33N 53°27' W 003°13'0 0.1
2014-Oct-16 13:33N 53°27' W 003°13'0 0.1
2014-Oct-16 12:33N 53°27' W 003°13'0 0.1
2014-Oct-16 11:33N 53°27' W 003°12'0 0.0
2014-Oct-16 10:33N 53°27' W 003°12'0 0.1
2014-Oct-16 09:33N 53°27' W 003°12'0 0.1
2014-Oct-16 08:33N 53°27' W 003°12'0 0.1
2014-Oct-16 07:33N 53°27' W 003°12'0 0.1
2014-Oct-16 06:33N 53°27' W 003°12'0 0.1
2014-Oct-16 05:33N 53°27' W 003°12'0 0.1
2014-Oct-16 04:33N 53°27' W 003°12'0 0.1
2014-Oct-16 03:33N 53°27' W 003°12'0 0.1
2014-Oct-16 02:33N 53°27' W 003°11'0 0.1
2014-Oct-16 01:33N 53°27' W 003°11'0 0.1
2014-Oct-16 00:33N 53°27' W 003°11'0 0.1
2014-Oct-15 23:33N 53°27' W 003°11'0 0.1
2014-Oct-15 22:33N 53°27' W 003°11'0 0.0
2014-Oct-15 21:33N 53°27' W 003°11'0 0.0
2014-Oct-15 20:33N 53°27' W 003°11'0 0.1
2014-Oct-15 19:33N 53°27' W 003°11'0 0.1
2014-Oct-15 18:33N 53°27' W 003°10'0 0.1
2014-Oct-15 17:33N 53°27' W 003°10'0 0.2
2014-Oct-15 16:33N 53°27' W 003°10'0 0.2
2014-Oct-15 15:33N 53°27' W 003°10'0 0.1
2014-Oct-15 14:33N 53°27' W 003°10'0 0.1
2014-Oct-15 13:33N 53°27' W 003°10'0 0.1
2014-Oct-15 12:33N 53°27' W 003°09'0 0.1
2014-Oct-15 11:33N 53°27' W 003°09'0 0.1
2014-Oct-15 10:33N 53°27' W 003°09'0 0.1
2014-Oct-15 09:33N 53°27' W 003°09'0 0.1
2014-Oct-15 08:33N 53°27' W 003°09'0 0.1
2014-Oct-15 07:33N 53°27' W 003°09'0 0.1
2014-Oct-15 06:33N 53°26' W 003°09'0 0.1
2014-Oct-15 05:33N 53°26' W 003°08'0 0.1
2014-Oct-15 04:33N 53°26' W 003°08'0 0.1
2014-Oct-15 03:33N 53°26' W 003°08'0 0.1
2014-Oct-15 02:33N 53°26' W 003°08'0 0.1
2014-Oct-15 01:33N 53°26' W 003°08'0 0.0
2014-Oct-15 00:33N 53°26' W 003°08'0 0.0
2014-Oct-14 23:33N 53°26' W 003°08'0 0.0
2014-Oct-14 22:33N 53°26' W 003°08'0 0.0
2014-Oct-14 21:33N 53°26' W 003°08'0 0.0
2014-Oct-14 20:33N 53°26' W 003°08'0 0.0
2014-Oct-14 19:33N 53°26' W 003°08'0 0.0
2014-Oct-14 18:33N 53°26' W 003°08'0 0.0
2014-Oct-14 17:33N 53°26' W 003°08'0 0.0
2014-Oct-14 16:33N 53°26' W 003°08'0 0.0
2014-Oct-14 15:33N 53°26' W 003°08'0 0.1
2014-Oct-14 14:33N 53°26' W 003°08'0 0.1
2014-Oct-14 13:33N 53°26' W 003°08'0 0.0
2014-Oct-14 12:33N 53°26' W 003°08'0 0.0
2014-Oct-14 11:33N 53°26' W 003°08'0 0.0
2014-Oct-14 10:33N 53°26' W 003°08'0 0.0
2014-Oct-14 09:33N 53°26' W 003°08'0 0.0
2014-Oct-14 08:33N 53°26' W 003°08'0 0.0
2014-Oct-14 07:33N 53°26' W 003°08'0 0.0
2014-Oct-14 06:33N 53°26' W 003°08'0 0.0
2014-Oct-14 05:33N 53°26' W 003°08'0 0.0
2014-Oct-14 04:33N 53°26' W 003°08'0 0.0
2014-Oct-14 03:33N 53°26' W 003°08'0 0.0
2014-Oct-14 02:33N 53°26' W 003°08'0 0.0
2014-Oct-14 01:33N 53°26' W 003°08'0 0.0
2014-Oct-14 00:33N 53°26' W 003°08'0 0.0
2014-Oct-13 23:33N 53°26' W 003°08'0 0.0
2014-Oct-13 22:33N 53°26' W 003°08'0 0.0
2014-Oct-13 21:33N 53°26' W 003°08'0 0.0
2014-Oct-13 20:33N 53°26' W 003°08'0 0.0
2014-Oct-13 19:33N 53°26' W 003°08'0 0.0
2014-Oct-13 18:33N 53°26' W 003°08'0 0.0
2014-Oct-13 17:33N 53°26' W 003°08'0 0.0
2014-Oct-13 16:33N 53°26' W 003°08'0 0.0
2014-Oct-13 15:33N 53°26' W 003°08'0 0.0
2014-Oct-13 14:33N 53°26' W 003°08'0 0.0
2014-Oct-13 13:33N 53°26' W 003°08'0 0.0
2014-Oct-13 12:33N 53°26' W 003°08'0 0.0
2014-Oct-13 11:33N 53°26' W 003°08'0 0.0
2014-Oct-13 10:33N 53°26' W 003°08'0 0.0
2014-Oct-13 09:33N 53°26' W 003°08'0 0.0
2014-Oct-13 08:33N 53°26' W 003°08'0 0.0
2014-Oct-13 07:33N 53°26' W 003°08'0 0.0
2014-Oct-13 06:33N 53°26' W 003°08'  

Dump ship's entire track history